Time;durP1;ratioP1;P1;durP2;ratioP2;P2;SDS_P1;SDS_P2;PMS_P1;PMS_P2;Temp;Humidity;BMP_temperature;BMP_pressure;BME280_temperature;BME280_humidity;BME280_pressure;Samples;Min_cycle;Max_cycle;Signal;HPM_P1;HPM_P2
2022/07/08 18:56:10;;;;;;;2.92;0.40;;;24.00;95.10;;;;;;4272558;26;20225;-77
2022/07/08 18:58:38;;;;;;;0.20;0.20;;;23.90;95.10;;;;;;4917228;29;20214;-78
2022/07/08 19:01:05;;;;;;;1.05;0.38;;;23.90;95.10;;;;;;4917457;29;20225;-78
2022/07/08 19:03:32;;;;;;;0.50;0.50;;;23.90;95.40;;;;;;4917243;29;20220;-77
2022/07/08 19:06:00;;;;;;;0.68;0.35;;;23.80;95.90;;;;;;4917168;29;20213;-79
2022/07/08 19:08:27;;;;;;;0.40;0.30;;;23.90;95.60;;;;;;4915496;29;20213;-77
2022/07/08 19:10:56;;;;;;;0.70;0.47;;;24.00;95.30;;;;;;4905177;29;20215;-80
2022/07/08 19:13:24;;;;;;;0.65;0.47;;;24.00;95.20;;;;;;4905496;29;20241;-80
2022/07/08 19:15:51;;;;;;;0.50;0.40;;;24.10;95.40;;;;;;4916112;29;20209;-72
2022/07/08 19:18:18;;;;;;;1.27;0.40;;;24.10;95.30;;;;;;4914232;29;20629;-74
2022/07/08 19:20:45;;;;;;;1.77;0.50;;;24.00;95.10;;;;;;4907599;29;20273;-76
2022/07/08 19:23:13;;;;;;;0.85;0.50;;;23.90;95.40;;;;;;4908456;29;20213;-79
2022/07/08 19:25:40;;;;;;;1.35;0.50;;;23.90;95.10;;;;;;4913125;29;20238;-78
2022/07/08 19:28:07;;;;;;;0.38;0.35;;;23.80;95.30;;;;;;4908054;29;20584;-76
2022/07/08 19:30:35;;;;;;;0.77;0.50;;;23.70;95.60;;;;;;4905608;29;20216;-80
2022/07/08 19:33:02;;;;;;;0.80;0.50;;;23.50;95.70;;;;;;4908014;29;20614;-75
2022/07/08 19:35:29;;;;;;;0.90;0.50;;;23.40;96.30;;;;;;4913690;29;20320;-73
2022/07/08 19:37:56;;;;;;;1.00;0.43;;;23.30;96.10;;;;;;4912235;29;20206;-75
2022/07/08 19:40:25;;;;;;;0.95;0.40;;;23.30;96.10;;;;;;4903122;29;20218;-73
2022/07/08 19:42:52;;;;;;;0.63;0.30;;;23.30;95.90;;;;;;4915023;29;20221;-73
2022/07/08 19:45:19;;;;;;;0.40;0.30;;;23.20;96.50;;;;;;4909217;29;20214;-77
2022/07/08 19:47:47;;;;;;;0.50;0.40;;;23.10;96.40;;;;;;4913812;29;20214;-73
2022/07/08 19:50:15;;;;;;;0.70;0.50;;;22.90;97.20;;;;;;4912189;29;20220;-72
2022/07/08 19:52:42;;;;;;;0.60;0.50;;;22.80;97.00;;;;;;4915867;29;20897;-73
2022/07/08 19:55:10;;;;;;;1.25;0.45;;;22.70;98.00;;;;;;4917891;29;20233;-72
2022/07/08 19:57:37;;;;;;;0.50;0.40;;;22.50;97.20;;;;;;4912583;29;20685;-72
2022/07/08 20:00:07;;;;;;;0.60;0.50;;;22.60;97.40;;;;;;4914154;29;20212;-73
2022/07/08 20:02:34;;;;;;;0.75;0.57;;;22.50;97.80;;;;;;4913627;29;20292;-72
2022/07/08 20:05:02;;;;;;;0.47;0.40;;;22.30;98.00;;;;;;4912899;29;20207;-72
2022/07/08 20:07:29;;;;;;;0.77;0.43;;;22.30;98.90;;;;;;4904850;29;20207;-75
2022/07/08 20:09:56;;;;;;;0.70;0.40;;;22.20;98.60;;;;;;4909195;29;20218;-72
2022/07/08 20:12:23;;;;;;;0.75;0.55;;;22.10;98.40;;;;;;4915660;29;20230;-72
2022/07/08 20:14:49;;;;;;;1.00;0.40;;;22.00;99.70;;;;;;4911331;29;20249;-72
2022/07/08 20:17:16;;;;;;;0.63;0.30;;;22.00;98.50;;;;;;4912933;29;20657;-73
2022/07/08 20:19:46;;;;;;;0.77;0.50;;;22.00;99.60;;;;;;4904895;29;20212;-73
2022/07/08 20:22:15;;;;;;;1.30;0.57;;;22.00;98.30;;;;;;4915211;29;20317;-72
2022/07/08 20:24:42;;;;;;;0.55;0.45;;;22.00;99.10;;;;;;4915397;29;20218;-74
2022/07/08 20:27:09;;;;;;;0.70;0.40;;;22.00;98.10;;;;;;4905826;29;20297;-72
2022/07/08 20:29:36;;;;;;;1.17;0.60;;;22.00;98.60;;;;;;4909645;29;20257;-77
2022/07/08 20:32:03;;;;;;;1.60;0.90;;;21.90;99.40;;;;;;4906972;29;20715;-79
2022/07/08 20:34:30;;;;;;;1.45;0.63;;;21.70;99.90;;;;;;4909014;29;20271;-79
2022/07/08 20:36:57;;;;;;;0.73;0.40;;;21.60;99.90;;;;;;4910776;29;20206;-79
2022/07/08 20:39:25;;;;;;;0.68;0.40;;;21.50;99.90;;;;;;4912296;29;20587;-79
2022/07/08 20:44:36;;;;;;;0.82;0.50;;;21.20;99.90;;;;;;4910296;29;20216;-79
2022/07/08 20:47:03;;;;;;;1.15;0.40;;;21.20;99.90;;;;;;4910420;29;20205;-79
2022/07/08 20:49:30;;;;;;;0.40;0.30;;;21.10;99.90;;;;;;4904628;29;20577;-79
2022/07/08 20:51:57;;;;;;;0.70;0.50;;;20.90;99.90;;;;;;4905788;29;20221;-78
2022/07/08 20:54:27;;;;;;;0.77;0.30;;;20.80;99.90;;;;;;4910551;29;20273;-79
2022/07/08 20:56:53;;;;;;;0.45;0.40;;;20.70;99.90;;;;;;4914504;29;20245;-79
2022/07/08 20:59:20;;;;;;;1.33;0.50;;;20.70;99.90;;;;;;4916884;29;20210;-79
2022/07/08 21:01:47;;;;;;;0.47;0.38;;;20.60;99.90;;;;;;4913221;29;20231;-79
2022/07/08 21:04:14;;;;;;;0.60;0.60;;;20.50;99.90;;;;;;4914742;29;20232;-79
2022/07/08 21:06:41;;;;;;;0.70;0.52;;;20.40;99.90;;;;;;4916435;29;20305;-78
2022/07/08 21:09:08;;;;;;;1.35;0.68;;;20.30;99.90;;;;;;4914338;29;20220;-79
2022/07/08 21:11:36;;;;;;;0.70;0.50;;;20.20;99.90;;;;;;4912812;29;20230;-79
2022/07/08 21:14:03;;;;;;;0.90;0.50;;;19.90;99.90;;;;;;4916148;29;20237;-79
2022/07/08 21:16:30;;;;;;;0.95;0.52;;;19.90;99.90;;;;;;4915171;29;20209;-78
2022/07/08 21:18:57;;;;;;;0.60;0.40;;;19.80;99.90;;;;;;4913098;29;20209;-78
2022/07/08 21:21:24;;;;;;;1.55;0.80;;;19.70;99.90;;;;;;4912204;29;20236;-79
2022/07/08 21:23:50;;;;;;;1.08;0.60;;;19.60;99.90;;;;;;4908270;29;20567;-79
2022/07/08 21:26:17;;;;;;;1.83;0.60;;;19.60;99.90;;;;;;4908277;29;20682;-79
2022/07/08 21:28:46;;;;;;;1.15;0.77;;;19.60;99.90;;;;;;4906419;29;20214;-78
2022/07/08 21:31:12;;;;;;;1.27;0.75;;;19.60;99.90;;;;;;4911437;29;20324;-79
2022/07/08 21:33:39;;;;;;;1.07;0.70;;;19.50;99.90;;;;;;4907297;29;20241;-78
2022/07/08 21:36:07;;;;;;;1.85;0.90;;;19.40;99.90;;;;;;4911958;29;20241;-78
2022/07/08 21:38:33;;;;;;;1.00;0.80;;;19.30;99.90;;;;;;4910476;29;20688;-78
2022/07/08 21:41:00;;;;;;;1.30;0.83;;;19.20;99.90;;;;;;4907280;29;20243;-74
2022/07/08 21:43:27;;;;;;;2.08;0.80;;;19.10;99.90;;;;;;4914503;29;20686;-75
2022/07/08 21:45:55;;;;;;;2.38;0.70;;;19.10;99.90;;;;;;4905540;29;20210;-74
2022/07/08 21:48:22;;;;;;;1.30;0.80;;;19.10;99.90;;;;;;4898540;29;20216;-74
2022/07/08 21:50:49;;;;;;;1.67;0.88;;;18.90;99.90;;;;;;4898765;29;20658;-75
2022/07/08 21:53:16;;;;;;;4.07;0.90;;;18.80;99.90;;;;;;4898036;29;20219;-75
2022/07/08 21:55:43;;;;;;;1.10;0.70;;;18.80;99.90;;;;;;4898379;29;20325;-73
2022/07/08 21:58:10;;;;;;;1.73;0.60;;;18.70;99.90;;;;;;4898969;29;20246;-74
2022/07/08 22:00:36;;;;;;;1.47;0.80;;;18.60;99.90;;;;;;4898955;29;20297;-73
2022/07/08 22:03:05;;;;;;;1.63;0.70;;;18.60;99.90;;;;;;4898794;29;20245;-76
